sensor_id;sensor_type;location;lat;lon;timestamp;pressure;altitude;pressure_sealevel;temperature;humidity
54592;BME280;40488;48.558;18.150;2023-07-29T00:00:07;99133.84;;;19.53;88.02
54592;BME280;40488;48.558;18.150;2023-07-29T00:02:38;99133.91;;;19.52;87.87
54592;BME280;40488;48.558;18.150;2023-07-29T00:05:08;99132.44;;;19.46;87.56
54592;BME280;40488;48.558;18.150;2023-07-29T00:07:38;99144.06;;;19.37;87.55
54592;BME280;40488;48.558;18.150;2023-07-29T00:10:08;99143.47;;;19.31;87.56
54592;BME280;40488;48.558;18.150;2023-07-29T00:12:37;99143.72;;;19.25;87.56
54592;BME280;40488;48.558;18.150;2023-07-29T00:15:07;99145.66;;;19.20;87.67
54592;BME280;40488;48.558;18.150;2023-07-29T00:17:36;99140.50;;;19.20;87.80
54592;BME280;40488;48.558;18.150;2023-07-29T00:20:06;99142.31;;;19.18;87.58
54592;BME280;40488;48.558;18.150;2023-07-29T00:22:35;99135.47;;;19.17;87.81
54592;BME280;40488;48.558;18.150;2023-07-29T00:25:06;99137.13;;;19.18;87.55
54592;BME280;40488;48.558;18.150;2023-07-29T00:27:35;99139.69;;;19.19;87.25
54592;BME280;40488;48.558;18.150;2023-07-29T00:30:06;99142.44;;;19.15;87.34
54592;BME280;40488;48.558;18.150;2023-07-29T00:32:36;99138.25;;;19.12;87.18
54592;BME280;40488;48.558;18.150;2023-07-29T00:35:06;99137.56;;;19.09;87.22
54592;BME280;40488;48.558;18.150;2023-07-29T00:37:37;99138.41;;;19.09;87.16
54592;BME280;40488;48.558;18.150;2023-07-29T00:40:14;99133.28;;;19.08;86.86
54592;BME280;40488;48.558;18.150;2023-07-29T00:42:44;99136.72;;;19.08;86.72
54592;BME280;40488;48.558;18.150;2023-07-29T00:45:13;99138.09;;;18.97;86.38
54592;BME280;40488;48.558;18.150;2023-07-29T00:47:42;99135.91;;;18.88;86.51
54592;BME280;40488;48.558;18.150;2023-07-29T00:50:13;99134.09;;;18.90;86.60
54592;BME280;40488;48.558;18.150;2023-07-29T00:52:43;99133.19;;;18.91;86.61
54592;BME280;40488;48.558;18.150;2023-07-29T00:55:13;99135.13;;;18.86;86.27
54592;BME280;40488;48.558;18.150;2023-07-29T00:57:43;99134.50;;;18.81;86.74
54592;BME280;40488;48.558;18.150;2023-07-29T01:00:15;99132.16;;;18.74;86.56
54592;BME280;40488;48.558;18.150;2023-07-29T01:02:44;99130.34;;;18.77;86.72
54592;BME280;40488;48.558;18.150;2023-07-29T01:05:16;99124.59;;;18.70;86.66
54592;BME280;40488;48.558;18.150;2023-07-29T01:07:49;99130.59;;;18.70;86.63
54592;BME280;40488;48.558;18.150;2023-07-29T01:10:30;99126.47;;;18.66;86.62
54592;BME280;40488;48.558;18.150;2023-07-29T01:13:05;99129.69;;;18.71;86.65
54592;BME280;40488;48.558;18.150;2023-07-29T01:15:43;99123.63;;;18.72;86.62
54592;BME280;40488;48.558;18.150;2023-07-29T01:18:21;99118.72;;;18.66;86.48
54592;BME280;40488;48.558;18.150;2023-07-29T01:20:53;99123.09;;;18.64;86.55
54592;BME280;40488;48.558;18.150;2023-07-29T01:23:26;99118.06;;;18.61;86.58
54592;BME280;40488;48.558;18.150;2023-07-29T01:25:54;99113.81;;;18.60;86.67
54592;BME280;40488;48.558;18.150;2023-07-29T01:28:23;99114.38;;;18.67;86.79
54592;BME280;40488;48.558;18.150;2023-07-29T01:30:58;99112.59;;;18.69;86.46
54592;BME280;40488;48.558;18.150;2023-07-29T01:33:35;99115.50;;;18.61;86.19
54592;BME280;40488;48.558;18.150;2023-07-29T01:36:12;99118.94;;;18.40;86.09
54592;BME280;40488;48.558;18.150;2023-07-29T01:38:44;99119.97;;;18.36;86.55
54592;BME280;40488;48.558;18.150;2023-07-29T01:41:14;99112.28;;;18.35;86.59
54592;BME280;40488;48.558;18.150;2023-07-29T01:43:43;99110.38;;;18.18;86.71
54592;BME280;40488;48.558;18.150;2023-07-29T01:46:14;99119.41;;;18.08;86.58
54592;BME280;40488;48.558;18.150;2023-07-29T01:48:43;99117.72;;;18.07;86.81
54592;BME280;40488;48.558;18.150;2023-07-29T01:51:14;99117.84;;;18.04;86.97
54592;BME280;40488;48.558;18.150;2023-07-29T01:53:45;99107.53;;;18.04;87.17
54592;BME280;40488;48.558;18.150;2023-07-29T01:56:13;99106.25;;;17.92;87.07
54592;BME280;40488;48.558;18.150;2023-07-29T01:58:51;99108.00;;;17.92;87.09
54592;BME280;40488;48.558;18.150;2023-07-29T02:01:20;99118.44;;;17.89;87.27
54592;BME280;40488;48.558;18.150;2023-07-29T02:03:50;99117.69;;;17.87;87.41
54592;BME280;40488;48.558;18.150;2023-07-29T02:06:24;99123.84;;;17.83;87.63
54592;BME280;40488;48.558;18.150;2023-07-29T02:08:56;99122.19;;;17.82;87.64
54592;BME280;40488;48.558;18.150;2023-07-29T02:11:26;99122.41;;;17.76;87.79
54592;BME280;40488;48.558;18.150;2023-07-29T02:13:56;99122.66;;;17.70;87.88
54592;BME280;40488;48.558;18.150;2023-07-29T02:16:26;99124.31;;;17.71;87.95
54592;BME280;40488;48.558;18.150;2023-07-29T02:18:55;99120.91;;;17.70;88.16
54592;BME280;40488;48.558;18.150;2023-07-29T02:21:23;99119.28;;;17.68;87.90
54592;BME280;40488;48.558;18.150;2023-07-29T02:23:53;99126.28;;;17.64;87.66
54592;BME280;40488;48.558;18.150;2023-07-29T02:26:23;99117.09;;;17.57;87.77
54592;BME280;40488;48.558;18.150;2023-07-29T02:28:52;99121.63;;;17.51;87.93
54592;BME280;40488;48.558;18.150;2023-07-29T02:31:23;99123.13;;;17.58;88.14
54592;BME280;40488;48.558;18.150;2023-07-29T02:33:52;99120.59;;;17.56;88.13
54592;BME280;40488;48.558;18.150;2023-07-29T02:36:21;99118.16;;;17.52;88.18
54592;BME280;40488;48.558;18.150;2023-07-29T02:38:50;99121.41;;;17.57;88.51
54592;BME280;40488;48.558;18.150;2023-07-29T02:41:19;99113.34;;;17.66;88.50
54592;BME280;40488;48.558;18.150;2023-07-29T02:43:50;99116.56;;;17.71;88.37
54592;BME280;40488;48.558;18.150;2023-07-29T02:46:19;99124.19;;;17.74;88.32
54592;BME280;40488;48.558;18.150;2023-07-29T02:48:49;99124.97;;;17.76;88.45
54592;BME280;40488;48.558;18.150;2023-07-29T02:51:18;99117.00;;;17.82;88.43
54592;BME280;40488;48.558;18.150;2023-07-29T02:53:47;99121.91;;;17.88;88.25
54592;BME280;40488;48.558;18.150;2023-07-29T02:56:17;99115.09;;;17.87;88.14
54592;BME280;40488;48.558;18.150;2023-07-29T02:58:46;99117.56;;;17.90;88.12
54592;BME280;40488;48.558;18.150;2023-07-29T03:01:16;99118.34;;;17.92;88.13
54592;BME280;40488;48.558;18.150;2023-07-29T03:03:46;99124.31;;;17.92;88.05
54592;BME280;40488;48.558;18.150;2023-07-29T03:06:16;99118.19;;;17.95;87.86
54592;BME280;40488;48.558;18.150;2023-07-29T03:08:45;99119.13;;;17.94;87.73
54592;BME280;40488;48.558;18.150;2023-07-29T03:11:15;99128.53;;;17.95;87.62
54592;BME280;40488;48.558;18.150;2023-07-29T03:13:44;99123.31;;;17.96;87.50
54592;BME280;40488;48.558;18.150;2023-07-29T03:16:15;99126.59;;;18.00;87.34
54592;BME280;40488;48.558;18.150;2023-07-29T03:18:59;99125.47;;;18.07;87.07
54592;BME280;40488;48.558;18.150;2023-07-29T03:21:28;99129.84;;;18.05;86.98
54592;BME280;40488;48.558;18.150;2023-07-29T03:23:57;99125.84;;;17.98;86.82
54592;BME280;40488;48.558;18.150;2023-07-29T03:26:26;99130.63;;;17.85;86.83
54592;BME280;40488;48.558;18.150;2023-07-29T03:28:55;99136.16;;;17.76;87.15
54592;BME280;40488;48.558;18.150;2023-07-29T03:31:25;99139.94;;;17.68;87.18
54592;BME280;40488;48.558;18.150;2023-07-29T03:33:55;99147.53;;;17.71;87.49
54592;BME280;40488;48.558;18.150;2023-07-29T03:36:24;99150.09;;;17.72;87.58
54592;BME280;40488;48.558;18.150;2023-07-29T03:38:53;99138.84;;;17.73;87.71
54592;BME280;40488;48.558;18.150;2023-07-29T03:41:22;99144.97;;;17.71;87.59
54592;BME280;40488;48.558;18.150;2023-07-29T03:43:51;99141.19;;;17.58;87.81
54592;BME280;40488;48.558;18.150;2023-07-29T03:46:20;99142.13;;;17.55;88.12
54592;BME280;40488;48.558;18.150;2023-07-29T03:48:52;99132.47;;;17.60;88.38
54592;BME280;40488;48.558;18.150;2023-07-29T03:51:21;99127.88;;;17.68;88.41
54592;BME280;40488;48.558;18.150;2023-07-29T03:53:51;99133.53;;;17.78;88.40
54592;BME280;40488;48.558;18.150;2023-07-29T03:56:20;99148.00;;;17.82;88.49
54592;BME280;40488;48.558;18.150;2023-07-29T03:58:49;99158.34;;;17.80;88.42
54592;BME280;40488;48.558;18.150;2023-07-29T04:01:19;99161.94;;;17.78;88.51
54592;BME280;40488;48.558;18.150;2023-07-29T04:03:48;99166.94;;;17.81;88.66
54592;BME280;40488;48.558;18.150;2023-07-29T04:06:20;99167.63;;;17.86;88.34
54592;BME280;40488;48.558;18.150;2023-07-29T04:08:50;99163.13;;;17.91;88.52
54592;BME280;40488;48.558;18.150;2023-07-29T04:11:19;99162.91;;;17.97;88.48
54592;BME280;40488;48.558;18.150;2023-07-29T04:13:48;99160.84;;;18.05;88.56
54592;BME280;40488;48.558;18.150;2023-07-29T04:16:17;99154.78;;;18.06;88.26
54592;BME280;40488;48.558;18.150;2023-07-29T04:18:46;99148.41;;;18.15;88.33
54592;BME280;40488;48.558;18.150;2023-07-29T04:21:15;99154.81;;;18.26;88.17
54592;BME280;40488;48.558;18.150;2023-07-29T04:23:45;99154.47;;;18.35;88.00
54592;BME280;40488;48.558;18.150;2023-07-29T04:26:15;99152.66;;;18.37;87.65
54592;BME280;40488;48.558;18.150;2023-07-29T04:28:43;99152.78;;;18.34;87.58
54592;BME280;40488;48.558;18.150;2023-07-29T04:31:12;99156.00;;;18.39;87.63
54592;BME280;40488;48.558;18.150;2023-07-29T04:33:41;99161.75;;;18.47;87.54
54592;BME280;40488;48.558;18.150;2023-07-29T04:36:11;99166.53;;;18.56;87.69
54592;BME280;40488;48.558;18.150;2023-07-29T04:38:45;99163.00;;;18.59;87.18
54592;BME280;40488;48.558;18.150;2023-07-29T04:41:14;99177.47;;;18.63;87.27
54592;BME280;40488;48.558;18.150;2023-07-29T04:43:43;99170.44;;;18.66;87.40
54592;BME280;40488;48.558;18.150;2023-07-29T04:46:12;99170.16;;;18.72;87.42
54592;BME280;40488;48.558;18.150;2023-07-29T04:48:41;99172.75;;;18.72;87.47
54592;BME280;40488;48.558;18.150;2023-07-29T04:51:10;99156.19;;;18.77;86.85
54592;BME280;40488;48.558;18.150;2023-07-29T04:53:40;99156.19;;;18.77;87.34
54592;BME280;40488;48.558;18.150;2023-07-29T04:56:11;99157.03;;;18.77;87.26
54592;BME280;40488;48.558;18.150;2023-07-29T04:58:45;99150.03;;;18.79;87.23
54592;BME280;40488;48.558;18.150;2023-07-29T05:01:14;99154.13;;;18.85;87.22
54592;BME280;40488;48.558;18.150;2023-07-29T05:03:42;99162.47;;;18.91;87.15
54592;BME280;40488;48.558;18.150;2023-07-29T05:06:12;99172.47;;;18.99;87.31
54592;BME280;40488;48.558;18.150;2023-07-29T05:08:41;99175.03;;;19.00;87.37
54592;BME280;40488;48.558;18.150;2023-07-29T05:11:12;99175.84;;;19.01;87.42
54592;BME280;40488;48.558;18.150;2023-07-29T05:13:41;99181.44;;;19.10;87.68
54592;BME280;40488;48.558;18.150;2023-07-29T05:16:12;99183.84;;;19.15;87.50
54592;BME280;40488;48.558;18.150;2023-07-29T05:18:42;99187.78;;;19.23;87.22
54592;BME280;40488;48.558;18.150;2023-07-29T05:21:11;99183.94;;;19.32;87.06
54592;BME280;40488;48.558;18.150;2023-07-29T05:23:41;99182.66;;;19.42;86.93
54592;BME280;40488;48.558;18.150;2023-07-29T05:26:12;99184.19;;;19.46;86.71
54592;BME280;40488;48.558;18.150;2023-07-29T05:28:41;99187.44;;;19.51;86.39
54592;BME280;40488;48.558;18.150;2023-07-29T05:31:10;99185.59;;;19.53;86.33
54592;BME280;40488;48.558;18.150;2023-07-29T05:33:39;99187.31;;;19.54;85.97
54592;BME280;40488;48.558;18.150;2023-07-29T05:36:08;99199.06;;;19.61;85.93
54592;BME280;40488;48.558;18.150;2023-07-29T05:38:37;99199.78;;;19.65;85.65
54592;BME280;40488;48.558;18.150;2023-07-29T05:41:07;99203.06;;;19.68;85.84
54592;BME280;40488;48.558;18.150;2023-07-29T05:43:37;99205.50;;;19.71;85.53
54592;BME280;40488;48.558;18.150;2023-07-29T05:46:06;99205.28;;;19.76;85.39
54592;BME280;40488;48.558;18.150;2023-07-29T05:48:35;99215.56;;;19.77;85.33
54592;BME280;40488;48.558;18.150;2023-07-29T05:51:04;99218.47;;;19.71;85.11
54592;BME280;40488;48.558;18.150;2023-07-29T05:53:34;99211.66;;;19.69;85.24
54592;BME280;40488;48.558;18.150;2023-07-29T05:56:03;99217.69;;;19.69;85.15
54592;BME280;40488;48.558;18.150;2023-07-29T05:58:32;99206.97;;;19.58;85.46
54592;BME280;40488;48.558;18.150;2023-07-29T06:01:03;99214.03;;;19.55;85.82
54592;BME280;40488;48.558;18.150;2023-07-29T06:03:32;99211.66;;;19.50;86.27
54592;BME280;40488;48.558;18.150;2023-07-29T06:06:01;99215.09;;;19.51;86.69
54592;BME280;40488;48.558;18.150;2023-07-29T06:08:30;99223.41;;;19.57;86.77
54592;BME280;40488;48.558;18.150;2023-07-29T06:11:01;99225.66;;;19.65;86.83
54592;BME280;40488;48.558;18.150;2023-07-29T06:13:30;99220.75;;;19.77;87.27
54592;BME280;40488;48.558;18.150;2023-07-29T06:15:59;99231.50;;;19.88;87.03
54592;BME280;40488;48.558;18.150;2023-07-29T06:18:30;99237.00;;;19.99;86.85
54592;BME280;40488;48.558;18.150;2023-07-29T06:20:59;99231.47;;;20.07;86.82
54592;BME280;40488;48.558;18.150;2023-07-29T06:23:28;99232.31;;;20.08;86.74
54592;BME280;40488;48.558;18.150;2023-07-29T06:25:56;99227.06;;;20.09;86.89
54592;BME280;40488;48.558;18.150;2023-07-29T06:28:25;99228.53;;;20.15;86.52
54592;BME280;40488;48.558;18.150;2023-07-29T06:30:54;99230.19;;;20.16;86.28
54592;BME280;40488;48.558;18.150;2023-07-29T06:33:23;99232.78;;;20.16;86.04
54592;BME280;40488;48.558;18.150;2023-07-29T06:35:54;99235.06;;;20.23;85.89
54592;BME280;40488;48.558;18.150;2023-07-29T06:38:23;99231.97;;;20.34;85.94
54592;BME280;40488;48.558;18.150;2023-07-29T06:40:52;99235.19;;;20.39;85.65
54592;BME280;40488;48.558;18.150;2023-07-29T06:43:20;99236.63;;;20.44;85.43
54592;BME280;40488;48.558;18.150;2023-07-29T06:45:50;99239.94;;;20.48;85.23
54592;BME280;40488;48.558;18.150;2023-07-29T06:48:19;99227.28;;;20.59;84.85
54592;BME280;40488;48.558;18.150;2023-07-29T06:50:48;99225.00;;;20.70;84.80
54592;BME280;40488;48.558;18.150;2023-07-29T06:53:19;99221.06;;;20.80;84.80
54592;BME280;40488;48.558;18.150;2023-07-29T06:55:48;99220.72;;;20.86;84.49
54592;BME280;40488;48.558;18.150;2023-07-29T06:58:16;99220.22;;;20.97;84.31
54592;BME280;40488;48.558;18.150;2023-07-29T07:00:45;99214.59;;;21.04;84.23
54592;BME280;40488;48.558;18.150;2023-07-29T07:03:14;99214.34;;;21.10;83.76
54592;BME280;40488;48.558;18.150;2023-07-29T07:05:43;99206.56;;;21.10;83.81
54592;BME280;40488;48.558;18.150;2023-07-29T07:08:12;99200.66;;;21.24;83.31
54592;BME280;40488;48.558;18.150;2023-07-29T07:10:42;99205.16;;;21.38;83.14
54592;BME280;40488;48.558;18.150;2023-07-29T07:13:11;99204.72;;;21.45;82.46
54592;BME280;40488;48.558;18.150;2023-07-29T07:15:40;99207.09;;;21.50;81.64
54592;BME280;40488;48.558;18.150;2023-07-29T07:18:09;99205.38;;;21.66;81.07
54592;BME280;40488;48.558;18.150;2023-07-29T07:20:38;99205.81;;;21.74;80.77
54592;BME280;40488;48.558;18.150;2023-07-29T07:23:07;99212.34;;;21.81;79.92
54592;BME280;40488;48.558;18.150;2023-07-29T07:25:39;99215.53;;;21.86;79.51
54592;BME280;40488;48.558;18.150;2023-07-29T07:28:11;99216.91;;;21.93;79.28
54592;BME280;40488;48.558;18.150;2023-07-29T07:30:40;99214.13;;;21.96;78.74
54592;BME280;40488;48.558;18.150;2023-07-29T07:33:09;99218.06;;;22.03;78.61
54592;BME280;40488;48.558;18.150;2023-07-29T07:35:38;99202.22;;;22.08;78.05
54592;BME280;40488;48.558;18.150;2023-07-29T07:38:09;99205.50;;;22.11;77.97
54592;BME280;40488;48.558;18.150;2023-07-29T07:40:38;99208.25;;;22.24;77.73
54592;BME280;40488;48.558;18.150;2023-07-29T07:43:07;99208.16;;;22.25;78.06
54592;BME280;40488;48.558;18.150;2023-07-29T07:45:37;99207.84;;;22.31;77.90
54592;BME280;40488;48.558;18.150;2023-07-29T07:48:06;99209.34;;;22.35;77.64
54592;BME280;40488;48.558;18.150;2023-07-29T07:50:38;99216.50;;;22.46;77.80
54592;BME280;40488;48.558;18.150;2023-07-29T07:53:07;99213.84;;;22.47;77.57
54592;BME280;40488;48.558;18.150;2023-07-29T07:55:36;99212.00;;;22.49;77.67
54592;BME280;40488;48.558;18.150;2023-07-29T07:58:05;99215.16;;;22.54;77.67
54592;BME280;40488;48.558;18.150;2023-07-29T08:00:34;99201.06;;;22.58;77.20
54592;BME280;40488;48.558;18.150;2023-07-29T08:03:04;99202.75;;;22.59;77.05
54592;BME280;40488;48.558;18.150;2023-07-29T08:05:33;99206.81;;;22.65;76.76
54592;BME280;40488;48.558;18.150;2023-07-29T08:08:02;99198.91;;;22.66;76.39
54592;BME280;40488;48.558;18.150;2023-07-29T08:10:31;99198.16;;;22.64;76.03
54592;BME280;40488;48.558;18.150;2023-07-29T08:13:00;99196.13;;;22.70;75.84
54592;BME280;40488;48.558;18.150;2023-07-29T08:15:29;99194.63;;;22.80;75.53
54592;BME280;40488;48.558;18.150;2023-07-29T08:17:57;99185.19;;;22.93;75.28
54592;BME280;40488;48.558;18.150;2023-07-29T08:20:28;99179.53;;;23.00;74.53
54592;BME280;40488;48.558;18.150;2023-07-29T08:22:57;99172.03;;;23.10;74.05
54592;BME280;40488;48.558;18.150;2023-07-29T08:25:26;99171.13;;;23.25;74.10
54592;BME280;40488;48.558;18.150;2023-07-29T08:27:55;99177.44;;;23.35;73.80
54592;BME280;40488;48.558;18.150;2023-07-29T08:30:23;99177.94;;;23.42;73.19
54592;BME280;40488;48.558;18.150;2023-07-29T08:32:52;99169.00;;;23.46;72.74
54592;BME280;40488;48.558;18.150;2023-07-29T08:35:21;99169.16;;;23.57;72.61
54592;BME280;40488;48.558;18.150;2023-07-29T08:37:52;99168.50;;;23.67;72.27
54592;BME280;40488;48.558;18.150;2023-07-29T08:40:27;99159.38;;;23.74;71.70
54592;BME280;40488;48.558;18.150;2023-07-29T08:42:58;99162.84;;;23.87;71.52
54592;BME280;40488;48.558;18.150;2023-07-29T08:45:35;99158.22;;;24.07;70.66
54592;BME280;40488;48.558;18.150;2023-07-29T08:48:08;99149.06;;;24.26;70.14
54592;BME280;40488;48.558;18.150;2023-07-29T08:50:37;99150.03;;;24.38;69.37
54592;BME280;40488;48.558;18.150;2023-07-29T08:53:08;99146.31;;;24.42;68.56
54592;BME280;40488;48.558;18.150;2023-07-29T08:55:37;99149.25;;;24.50;68.24
54592;BME280;40488;48.558;18.150;2023-07-29T08:58:06;99152.19;;;24.58;68.36
54592;BME280;40488;48.558;18.150;2023-07-29T09:00:36;99147.91;;;24.70;68.25
54592;BME280;40488;48.558;18.150;2023-07-29T09:03:06;99152.84;;;24.74;67.62
54592;BME280;40488;48.558;18.150;2023-07-29T09:05:35;99156.19;;;24.76;66.67
54592;BME280;40488;48.558;18.150;2023-07-29T09:08:04;99148.91;;;24.81;66.78
54592;BME280;40488;48.558;18.150;2023-07-29T09:10:37;99148.06;;;24.93;66.29
54592;BME280;40488;48.558;18.150;2023-07-29T09:13:07;99144.09;;;25.13;66.30
54592;BME280;40488;48.558;18.150;2023-07-29T09:15:37;99140.97;;;25.20;65.43
54592;BME280;40488;48.558;18.150;2023-07-29T09:18:10;99138.88;;;25.25;65.45
54592;BME280;40488;48.558;18.150;2023-07-29T09:20:39;99142.81;;;25.44;65.16
54592;BME280;40488;48.558;18.150;2023-07-29T09:23:09;99152.25;;;25.46;64.55
54592;BME280;40488;48.558;18.150;2023-07-29T09:25:40;99150.59;;;25.45;64.31
54592;BME280;40488;48.558;18.150;2023-07-29T09:28:10;99149.75;;;25.45;63.89
54592;BME280;40488;48.558;18.150;2023-07-29T09:30:44;99141.06;;;25.44;63.63
54592;BME280;40488;48.558;18.150;2023-07-29T09:33:14;99130.78;;;25.41;64.07
54592;BME280;40488;48.558;18.150;2023-07-29T09:35:44;99125.31;;;25.46;63.65
54592;BME280;40488;48.558;18.150;2023-07-29T09:38:14;99125.69;;;25.65;63.33
54592;BME280;40488;48.558;18.150;2023-07-29T09:40:44;99125.28;;;25.82;62.61
54592;BME280;40488;48.558;18.150;2023-07-29T09:43:16;99129.88;;;25.91;62.43
54592;BME280;40488;48.558;18.150;2023-07-29T09:45:46;99120.56;;;25.87;61.50
54592;BME280;40488;48.558;18.150;2023-07-29T09:48:19;99117.03;;;25.75;61.45
54592;BME280;40488;48.558;18.150;2023-07-29T09:50:51;99123.75;;;25.79;61.83
54592;BME280;40488;48.558;18.150;2023-07-29T09:53:19;99115.81;;;25.92;61.51
54592;BME280;40488;48.558;18.150;2023-07-29T09:55:52;99116.84;;;26.02;61.44
54592;BME280;40488;48.558;18.150;2023-07-29T09:58:27;99108.44;;;26.33;62.28
54592;BME280;40488;48.558;18.150;2023-07-29T10:00:56;99108.00;;;26.39;61.57
54592;BME280;40488;48.558;18.150;2023-07-29T10:03:25;99119.63;;;26.35;61.15
54592;BME280;40488;48.558;18.150;2023-07-29T10:05:55;99117.22;;;26.32;60.57
54592;BME280;40488;48.558;18.150;2023-07-29T10:08:24;99110.13;;;26.34;60.16
54592;BME280;40488;48.558;18.150;2023-07-29T10:10:55;99108.28;;;26.58;59.40
54592;BME280;40488;48.558;18.150;2023-07-29T10:13:25;99100.13;;;26.85;59.72
54592;BME280;40488;48.558;18.150;2023-07-29T10:15:54;99105.28;;;27.20;59.44
54592;BME280;40488;48.558;18.150;2023-07-29T10:18:26;99101.34;;;27.14;59.03
54592;BME280;40488;48.558;18.150;2023-07-29T10:20:57;99098.00;;;27.01;58.89
54592;BME280;40488;48.558;18.150;2023-07-29T10:23:28;99097.50;;;26.85;59.28
54592;BME280;40488;48.558;18.150;2023-07-29T10:26:04;99096.63;;;26.63;59.67
54592;BME280;40488;48.558;18.150;2023-07-29T10:28:37;99102.28;;;26.45;59.36
54592;BME280;40488;48.558;18.150;2023-07-29T10:31:08;99098.66;;;26.24;59.57
54592;BME280;40488;48.558;18.150;2023-07-29T10:33:37;99091.19;;;26.07;59.74
54592;BME280;40488;48.558;18.150;2023-07-29T10:36:08;99096.59;;;26.17;59.84
54592;BME280;40488;48.558;18.150;2023-07-29T10:38:37;99093.38;;;26.48;59.38
54592;BME280;40488;48.558;18.150;2023-07-29T10:41:08;99083.34;;;26.88;58.82
54592;BME280;40488;48.558;18.150;2023-07-29T10:43:37;99088.00;;;27.28;58.59
54592;BME280;40488;48.558;18.150;2023-07-29T10:46:17;99084.16;;;27.55;57.17
54592;BME280;40488;48.558;18.150;2023-07-29T10:48:54;99070.06;;;27.78;56.88
54592;BME280;40488;48.558;18.150;2023-07-29T10:51:25;99069.91;;;27.90;55.88
54592;BME280;40488;48.558;18.150;2023-07-29T10:53:55;99073.72;;;27.86;55.34
54592;BME280;40488;48.558;18.150;2023-07-29T10:56:29;99064.13;;;27.97;54.51
54592;BME280;40488;48.558;18.150;2023-07-29T10:59:22;99057.09;;;28.08;53.66
54592;BME280;40488;48.558;18.150;2023-07-29T11:01:53;99051.66;;;28.21;53.18
54592;BME280;40488;48.558;18.150;2023-07-29T11:04:24;99054.22;;;28.32;53.24
54592;BME280;40488;48.558;18.150;2023-07-29T11:09:53;99043.66;;;28.64;51.83
54592;BME280;40488;48.558;18.150;2023-07-29T11:15:20;99026.91;;;28.85;49.91
54592;BME280;40488;48.558;18.150;2023-07-29T11:17:51;99023.38;;;29.05;49.84
54592;BME280;40488;48.558;18.150;2023-07-29T11:20:22;99029.53;;;29.25;49.06
54592;BME280;40488;48.558;18.150;2023-07-29T11:22:52;99032.06;;;29.27;48.27
54592;BME280;40488;48.558;18.150;2023-07-29T11:25:23;99034.81;;;29.25;47.36
54592;BME280;40488;48.558;18.150;2023-07-29T11:27:54;99037.59;;;29.33;47.50
54592;BME280;40488;48.558;18.150;2023-07-29T11:30:24;99021.84;;;29.43;47.01
54592;BME280;40488;48.558;18.150;2023-07-29T11:32:55;99037.22;;;29.57;47.02
54592;BME280;40488;48.558;18.150;2023-07-29T11:35:24;99030.41;;;29.45;47.29
54592;BME280;40488;48.558;18.150;2023-07-29T11:37:55;99038.59;;;29.11;47.51
54592;BME280;40488;48.558;18.150;2023-07-29T11:40:25;99036.59;;;28.94;47.70
54592;BME280;40488;48.558;18.150;2023-07-29T11:42:54;99035.81;;;28.73;47.67
54592;BME280;40488;48.558;18.150;2023-07-29T11:45:24;99042.88;;;28.52;48.04
54592;BME280;40488;48.558;18.150;2023-07-29T11:48:13;99042.97;;;28.41;48.21
54592;BME280;40488;48.558;18.150;2023-07-29T11:50:41;99033.06;;;28.54;48.74
54592;BME280;40488;48.558;18.150;2023-07-29T11:53:10;99038.75;;;28.80;48.10
54592;BME280;40488;48.558;18.150;2023-07-29T11:55:43;99032.41;;;29.12;48.10
54592;BME280;40488;48.558;18.150;2023-07-29T11:58:12;99029.03;;;29.31;47.15
54592;BME280;40488;48.558;18.150;2023-07-29T12:00:42;99032.50;;;29.11;47.30
54592;BME280;40488;48.558;18.150;2023-07-29T12:03:13;99024.31;;;28.95;47.55
54592;BME280;40488;48.558;18.150;2023-07-29T12:05:45;99022.31;;;29.17;47.31
54592;BME280;40488;48.558;18.150;2023-07-29T12:08:16;99014.50;;;29.37;46.84
54592;BME280;40488;48.558;18.150;2023-07-29T12:10:45;99011.31;;;29.43;46.11
54592;BME280;40488;48.558;18.150;2023-07-29T12:13:14;99002.91;;;29.49;46.44
54592;BME280;40488;48.558;18.150;2023-07-29T12:15:44;99005.22;;;29.52;46.25
54592;BME280;40488;48.558;18.150;2023-07-29T12:18:13;98994.19;;;29.58;45.93
54592;BME280;40488;48.558;18.150;2023-07-29T12:20:43;99001.94;;;29.69;45.64
54592;BME280;40488;48.558;18.150;2023-07-29T12:23:12;99002.53;;;29.82;45.21
54592;BME280;40488;48.558;18.150;2023-07-29T12:25:41;99003.63;;;29.89;44.85
54592;BME280;40488;48.558;18.150;2023-07-29T12:28:10;99002.78;;;29.89;44.71
54592;BME280;40488;48.558;18.150;2023-07-29T12:30:41;99006.94;;;29.81;43.92
54592;BME280;40488;48.558;18.150;2023-07-29T12:33:29;99002.09;;;29.87;44.56
54592;BME280;40488;48.558;18.150;2023-07-29T12:35:59;98995.03;;;29.87;44.29
54592;BME280;40488;48.558;18.150;2023-07-29T12:38:27;98998.38;;;29.79;44.26
54592;BME280;40488;48.558;18.150;2023-07-29T12:40:56;98987.84;;;29.79;43.91
54592;BME280;40488;48.558;18.150;2023-07-29T12:43:25;98988.09;;;29.86;43.69
54592;BME280;40488;48.558;18.150;2023-07-29T12:45:54;98999.16;;;30.18;44.52
54592;BME280;40488;48.558;18.150;2023-07-29T12:48:24;98991.09;;;30.29;44.01
54592;BME280;40488;48.558;18.150;2023-07-29T12:50:53;98982.91;;;30.32;43.73
54592;BME280;40488;48.558;18.150;2023-07-29T12:53:22;98989.13;;;30.50;43.61
54592;BME280;40488;48.558;18.150;2023-07-29T12:55:51;98992.47;;;30.43;43.39
54592;BME280;40488;48.558;18.150;2023-07-29T12:58:19;98983.03;;;30.40;42.47
54592;BME280;40488;48.558;18.150;2023-07-29T13:00:48;98978.91;;;30.38;42.79
54592;BME280;40488;48.558;18.150;2023-07-29T13:03:17;98987.50;;;30.30;43.32
54592;BME280;40488;48.558;18.150;2023-07-29T13:05:47;98980.31;;;30.13;43.70
54592;BME280;40488;48.558;18.150;2023-07-29T13:08:16;98985.47;;;30.05;43.63
54592;BME280;40488;48.558;18.150;2023-07-29T13:10:45;98983.69;;;29.87;43.31